Accueil
METAR-TAF:

METAR-TAF

Aéroports :

Aéroport de Caen - Carpiquet

Caen, France

latitude: 49-11N, longitude: 000-27W, altitude: 78 m

Observation

Le bulletin a été fait il y a 29 minutes, à 15:00 UTC
Vent 14 kt de sud/sud-ouest
Température 22°C
Humidité 57%
Pression 1015 hPa
Visibilité 10 km ou plus
pas de nuages en-dessous de 1500 mètres et pas de cumulonimbus.

METAR: LFRK 191500Z AUTO 20014KT CAVOK 22/13 Q1015 TEMPO 20015G25KT

Heure: 17:29 (15:29 UTC)

Prévision

Le bulletin a été fait il y a 1 heure et 29 minutes, à 14:00 UTC
Prévision valable du 19 à 15 UTC au 19 à 24 UTC
Vent 13 kt de sud/sud-ouest
Visibilité 10 km ou plus
pas de nuages en-dessous de 1500 mètres et pas de cumulonimbus.
Temporairement
du 19 à 15 UTC au 19 à 24 UTC
Vent 15 kt de sud/sud-ouest avec des rafales jusqu'à 25 kt

TAF: LFRK 191400Z 1915/1924 20013KT CAVOK TEMPO 1915/1924 20015G25KT

Observations et prévisions météorologiques de plus de 4000 aéroports (messages METAR et TAF).

Les stations disponibles sont représentées par des disques jaunes et rouges sur la carte.

Passer la souris dessus pour voir le nom de la station.

Cliquer dessus pour voir les observations et prévisions météorologiques.

Pour changer de carte: cliquez sur les boutons verts avec une croix noire pour zoomer, sur le bouton vert avec un tiret pour effectuer un zoom arrière, ou sur les flèches vertes pour les cartes adjacentes.


METAR-TAF: